Notice: iconv(): Detected an illegal character in input string in /home/meteolat/www/weather28/wsLangFunctions.php on line 115

Notice: iconv(): Detected an illegal character in input string in /home/meteolat/www/weather28/wsLangFunctions.php on line 115
Météorologique de l'aéroport - Météo La Turballe

Il s'agit d'un problème de communication. Allez directement sur le site Meteoalarm : www.meteoalarm.eu et vérifier les avertissements météorologiques..


Visitez nos sites météorologiques autres:

Template documentation
and downloads

And another site



Rapports METAR proximité

   
EHVK - Volkel Rnlafb, Netherlands
Distance: SO 18 km
Mise à jour: 09-08-2022 09:25
Claires  
Claires  
   Vent: NNE 11.1 km/h
Vent: NNE 11.1 km/h
Température: 19°C
Point de rosée: 14°C
Humidité: 73%
Baromètre: 1028 hPa
Nuageux: Claires
visibilité: More than 10 km
Détails des nuages: Claires
EHVK 090725Z AUTO 03006KT 360V060 9999 NCD 19/14 Q1028 BLU NOSIG
EDLV - Niederrhein, Germany
Distance: SE 25 km
Mise à jour: 09-08-2022 09:20
Claires  
Claires  
   Vent: NNE 9.3 km/h
Vent: NNE 9.3 km/h
Température: 18°C
Point de rosée: 14°C
Humidité: 78%
Baromètre: 1028 hPa
visibilité: More than 10 km
Détails des nuages: Claires
EDLV 090720Z 02005KT 320V130 CAVOK 18/14 Q1028
EHDL - Deelen Rnlafb, Netherlands
Distance: N 35 km
Mise à jour: 09-08-2022 09:25
Claires  
Claires  
   Vent: varie 14.8 km/h
Vent: varie 14.8 km/h
Température: 19°C
Point de rosée: 14°C
Humidité: 73%
Baromètre: 1028 hPa
Nuageux: Claires
visibilité: More than 10 km
Détails des nuages: Claires
EHDL 090725Z AUTO VRB08KT 9999 NCD 19/14 Q1028 BLU
EHEH - Eindhoven Rnlafb, Netherlands
Distance: SO 48 km
Mise à jour: 09-08-2022 09:25
Claires  
Claires  
   Vent: NNE 11.1 km/h
Vent: NNE 11.1 km/h
Température: 20°C
Point de rosée: 14°C
Humidité: 69%
Baromètre: 1028 hPa
Nuageux: Claires
visibilité: More than 10 km
Détails des nuages: Claires
EHEH 090725Z AUTO 03006KT 340V050 9999 NCD 20/14 Q1028 BLU NOSIG
EHGR - Gilze-Rijen Rnla, Netherlands
Distance: OSO 70 km
Mise à jour: 09-08-2022 09:25
Claires  
Claires  
   Vent: North 13 km/h
Vent: North 13 km/h
Température: 19°C
Point de rosée: 14°C
Humidité: 73%
Baromètre: 1028 hPa
Nuageux: Claires
visibilité: More than 10 km
Détails des nuages: Claires
EHGR 090725Z AUTO 01007KT 310V080 9999 NCD 19/14 Q1028 BLU NOSIG
EBBL - Kleine-Brogel(Ba, Belgium
Distance: SSO 71 km
Mise à jour: 09-08-2022 08:55
Claires  
Claires  
   Vent: NE 11.1 km/h
Vent: NE 11.1 km/h
Température: 19°C
Point de rosée: 14°C
Humidité: 73%
Baromètre: 1027 hPa
Nuageux: Claires
visibilité: More than 10 km
Détails des nuages: Claires
EBBL 090655Z 04006KT 9999 SKC 19/14 Q1027 BLU BLU

Script développé par  Saratoga-weather.org Adapté pour le modèle par  Weerstation Leuven

Équipement que nous utilisons:

Station de Météo
Davis VUE

Davis VUE